sensor_id;sensor_type;location;lat;lon;timestamp;P1;durP1;ratioP1;P2;durP2;ratioP2
67941;SDS011;54731;42.600;23.476;2023-12-28T00:00:42;12.43;;;7.07;;
67941;SDS011;54731;42.600;23.476;2023-12-28T00:03:07;27.37;;;11.23;;
67941;SDS011;54731;42.600;23.476;2023-12-28T00:05:32;23.97;;;9.60;;
67941;SDS011;54731;42.600;23.476;2023-12-28T00:07:57;16.43;;;7.20;;
67941;SDS011;54731;42.600;23.476;2023-12-28T00:10:23;8.80;;;4.93;;
67941;SDS011;54731;42.600;23.476;2023-12-28T00:12:49;9.55;;;4.50;;
67941;SDS011;54731;42.600;23.476;2023-12-28T00:15:14;17.83;;;9.33;;
67941;SDS011;54731;42.600;23.476;2023-12-28T00:17:40;14.75;;;6.38;;
67941;SDS011;54731;42.600;23.476;2023-12-28T00:20:05;15.15;;;7.32;;
67941;SDS011;54731;42.600;23.476;2023-12-28T00:22:31;10.83;;;5.30;;
67941;SDS011;54731;42.600;23.476;2023-12-28T00:24:56;12.17;;;5.17;;
67941;SDS011;54731;42.600;23.476;2023-12-28T00:27:21;11.43;;;6.33;;
67941;SDS011;54731;42.600;23.476;2023-12-28T00:29:47;14.40;;;9.33;;
67941;SDS011;54731;42.600;23.476;2023-12-28T00:32:12;21.88;;;8.00;;
67941;SDS011;54731;42.600;23.476;2023-12-28T00:34:37;12.83;;;6.20;;
67941;SDS011;54731;42.600;23.476;2023-12-28T00:37:03;9.70;;;4.73;;
67941;SDS011;54731;42.600;23.476;2023-12-28T00:39:28;7.60;;;4.10;;
67941;SDS011;54731;42.600;23.476;2023-12-28T00:41:53;10.70;;;5.00;;
67941;SDS011;54731;42.600;23.476;2023-12-28T00:44:19;14.63;;;6.20;;
67941;SDS011;54731;42.600;23.476;2023-12-28T00:46:44;14.63;;;7.63;;
67941;SDS011;54731;42.600;23.476;2023-12-28T00:49:09;18.80;;;9.13;;
67941;SDS011;54731;42.600;23.476;2023-12-28T00:51:34;24.23;;;10.93;;
67941;SDS011;54731;42.600;23.476;2023-12-28T00:54:00;16.98;;;9.50;;
67941;SDS011;54731;42.600;23.476;2023-12-28T00:56:25;16.23;;;8.73;;
67941;SDS011;54731;42.600;23.476;2023-12-28T00:58:50;13.43;;;6.77;;
67941;SDS011;54731;42.600;23.476;2023-12-28T01:01:16;19.37;;;7.40;;
67941;SDS011;54731;42.600;23.476;2023-12-28T01:03:41;10.10;;;5.07;;
67941;SDS011;54731;42.600;23.476;2023-12-28T01:06:06;8.57;;;4.30;;
67941;SDS011;54731;42.600;23.476;2023-12-28T01:08:32;16.50;;;6.33;;
67941;SDS011;54731;42.600;23.476;2023-12-28T01:10:57;12.88;;;5.68;;
67941;SDS011;54731;42.600;23.476;2023-12-28T01:13:22;13.37;;;6.40;;
67941;SDS011;54731;42.600;23.476;2023-12-28T01:15:48;16.57;;;6.30;;
67941;SDS011;54731;42.600;23.476;2023-12-28T01:18:13;13.90;;;6.80;;
67941;SDS011;54731;42.600;23.476;2023-12-28T01:20:38;16.87;;;7.60;;
67941;SDS011;54731;42.600;23.476;2023-12-28T01:23:04;12.53;;;6.20;;
67941;SDS011;54731;42.600;23.476;2023-12-28T01:25:29;10.37;;;4.93;;
67941;SDS011;54731;42.600;23.476;2023-12-28T01:27:54;13.10;;;6.43;;
67941;SDS011;54731;42.600;23.476;2023-12-28T01:30:19;16.17;;;6.37;;
67941;SDS011;54731;42.600;23.476;2023-12-28T01:32:45;13.90;;;6.28;;
67941;SDS011;54731;42.600;23.476;2023-12-28T01:35:10;14.10;;;6.30;;
67941;SDS011;54731;42.600;23.476;2023-12-28T01:37:35;7.00;;;4.07;;
67941;SDS011;54731;42.600;23.476;2023-12-28T01:40:01;12.00;;;4.80;;
67941;SDS011;54731;42.600;23.476;2023-12-28T01:42:26;8.43;;;4.53;;
67941;SDS011;54731;42.600;23.476;2023-12-28T01:44:51;8.40;;;4.33;;
67941;SDS011;54731;42.600;23.476;2023-12-28T01:47:17;12.70;;;4.80;;
67941;SDS011;54731;42.600;23.476;2023-12-28T01:49:43;10.02;;;4.00;;
67941;SDS011;54731;42.600;23.476;2023-12-28T01:52:08;14.10;;;4.93;;
67941;SDS011;54731;42.600;23.476;2023-12-28T01:54:34;10.95;;;5.35;;
67941;SDS011;54731;42.600;23.476;2023-12-28T01:57:01;12.60;;;5.40;;
67941;SDS011;54731;42.600;23.476;2023-12-28T01:59:27;12.18;;;4.65;;
67941;SDS011;54731;42.600;23.476;2023-12-28T02:01:53;10.90;;;4.57;;
67941;SDS011;54731;42.600;23.476;2023-12-28T02:04:18;10.93;;;5.45;;
67941;SDS011;54731;42.600;23.476;2023-12-28T02:06:44;8.55;;;4.53;;
67941;SDS011;54731;42.600;23.476;2023-12-28T02:09:09;10.00;;;5.20;;
67941;SDS011;54731;42.600;23.476;2023-12-28T02:11:34;10.30;;;4.87;;
67941;SDS011;54731;42.600;23.476;2023-12-28T02:13:59;8.83;;;4.47;;
67941;SDS011;54731;42.600;23.476;2023-12-28T02:16:25;8.27;;;4.40;;
67941;SDS011;54731;42.600;23.476;2023-12-28T02:19:09;7.47;;;3.30;;
67941;SDS011;54731;42.600;23.476;2023-12-28T02:21:55;7.95;;;3.58;;
67941;SDS011;54731;42.600;23.476;2023-12-28T02:24:22;10.97;;;3.30;;
67941;SDS011;54731;42.600;23.476;2023-12-28T02:26:47;8.93;;;3.67;;
67941;SDS011;54731;42.600;23.476;2023-12-28T02:29:13;6.43;;;3.43;;
67941;SDS011;54731;42.600;23.476;2023-12-28T02:31:39;8.03;;;2.93;;
67941;SDS011;54731;42.600;23.476;2023-12-28T02:34:12;8.45;;;3.83;;
67941;SDS011;54731;42.600;23.476;2023-12-28T02:36:44;8.07;;;3.67;;
67941;SDS011;54731;42.600;23.476;2023-12-28T02:39:11;15.30;;;5.35;;
67941;SDS011;54731;42.600;23.476;2023-12-28T02:41:40;18.33;;;6.63;;
67941;SDS011;54731;42.600;23.476;2023-12-28T02:44:07;13.70;;;5.03;;
67941;SDS011;54731;42.600;23.476;2023-12-28T02:46:32;10.73;;;4.83;;
67941;SDS011;54731;42.600;23.476;2023-12-28T02:48:57;9.93;;;4.70;;
67941;SDS011;54731;42.600;23.476;2023-12-28T02:51:23;8.93;;;3.93;;
67941;SDS011;54731;42.600;23.476;2023-12-28T02:53:48;8.43;;;4.10;;
67941;SDS011;54731;42.600;23.476;2023-12-28T02:56:13;10.27;;;4.37;;
67941;SDS011;54731;42.600;23.476;2023-12-28T02:58:38;10.13;;;6.30;;
67941;SDS011;54731;42.600;23.476;2023-12-28T03:01:04;5.97;;;3.03;;
67941;SDS011;54731;42.600;23.476;2023-12-28T03:03:29;9.70;;;3.42;;
67941;SDS011;54731;42.600;23.476;2023-12-28T03:05:54;19.07;;;4.50;;
67941;SDS011;54731;42.600;23.476;2023-12-28T03:08:20;13.93;;;6.20;;
67941;SDS011;54731;42.600;23.476;2023-12-28T03:10:45;17.40;;;6.10;;
67941;SDS011;54731;42.600;23.476;2023-12-28T03:13:10;16.00;;;7.37;;
67941;SDS011;54731;42.600;23.476;2023-12-28T03:15:35;20.23;;;7.97;;
67941;SDS011;54731;42.600;23.476;2023-12-28T03:18:01;14.23;;;6.20;;
67941;SDS011;54731;42.600;23.476;2023-12-28T03:20:26;12.43;;;6.07;;
67941;SDS011;54731;42.600;23.476;2023-12-28T03:22:51;10.93;;;4.33;;
67941;SDS011;54731;42.600;23.476;2023-12-28T03:25:17;9.50;;;4.17;;
67941;SDS011;54731;42.600;23.476;2023-12-28T03:27:42;7.30;;;4.38;;
67941;SDS011;54731;42.600;23.476;2023-12-28T03:30:07;8.60;;;4.60;;
67941;SDS011;54731;42.600;23.476;2023-12-28T03:32:33;9.17;;;4.47;;
67941;SDS011;54731;42.600;23.476;2023-12-28T03:34:58;11.47;;;4.03;;
67941;SDS011;54731;42.600;23.476;2023-12-28T03:37:24;9.10;;;3.87;;
67941;SDS011;54731;42.600;23.476;2023-12-28T03:39:49;8.55;;;3.90;;
67941;SDS011;54731;42.600;23.476;2023-12-28T03:42:14;12.77;;;4.70;;
67941;SDS011;54731;42.600;23.476;2023-12-28T03:44:39;8.53;;;4.73;;
67941;SDS011;54731;42.600;23.476;2023-12-28T03:47:05;10.57;;;6.27;;
67941;SDS011;54731;42.600;23.476;2023-12-28T03:49:31;20.95;;;11.15;;
67941;SDS011;54731;42.600;23.476;2023-12-28T03:51:56;25.77;;;12.37;;
67941;SDS011;54731;42.600;23.476;2023-12-28T03:54:22;23.00;;;10.47;;
67941;SDS011;54731;42.600;23.476;2023-12-28T03:56:47;28.43;;;13.83;;
67941;SDS011;54731;42.600;23.476;2023-12-28T03:59:12;25.07;;;12.00;;
67941;SDS011;54731;42.600;23.476;2023-12-28T04:01:38;32.75;;;14.75;;
67941;SDS011;54731;42.600;23.476;2023-12-28T04:04:04;25.60;;;11.70;;
67941;SDS011;54731;42.600;23.476;2023-12-28T04:06:29;16.53;;;8.03;;
67941;SDS011;54731;42.600;23.476;2023-12-28T04:08:54;14.40;;;6.40;;
67941;SDS011;54731;42.600;23.476;2023-12-28T04:11:20;16.50;;;7.27;;
67941;SDS011;54731;42.600;23.476;2023-12-28T04:13:45;26.17;;;13.07;;
67941;SDS011;54731;42.600;23.476;2023-12-28T04:16:13;24.73;;;10.30;;
67941;SDS011;54731;42.600;23.476;2023-12-28T04:18:40;15.60;;;7.20;;
67941;SDS011;54731;42.600;23.476;2023-12-28T04:21:09;22.98;;;9.30;;
67941;SDS011;54731;42.600;23.476;2023-12-28T04:23:36;23.85;;;8.70;;
67941;SDS011;54731;42.600;23.476;2023-12-28T04:26:02;9.18;;;5.28;;
67941;SDS011;54731;42.600;23.476;2023-12-28T04:28:27;11.63;;;4.63;;
67941;SDS011;54731;42.600;23.476;2023-12-28T04:30:52;9.93;;;4.53;;
67941;SDS011;54731;42.600;23.476;2023-12-28T04:33:17;14.37;;;5.70;;
67941;SDS011;54731;42.600;23.476;2023-12-28T04:35:43;14.37;;;7.87;;
67941;SDS011;54731;42.600;23.476;2023-12-28T04:38:08;13.33;;;6.97;;
67941;SDS011;54731;42.600;23.476;2023-12-28T04:40:34;10.82;;;5.43;;
67941;SDS011;54731;42.600;23.476;2023-12-28T04:42:59;10.27;;;5.40;;
67941;SDS011;54731;42.600;23.476;2023-12-28T04:45:24;10.67;;;5.33;;
67941;SDS011;54731;42.600;23.476;2023-12-28T04:47:49;10.90;;;5.07;;
67941;SDS011;54731;42.600;23.476;2023-12-28T04:50:15;10.13;;;3.87;;
67941;SDS011;54731;42.600;23.476;2023-12-28T04:52:40;8.70;;;4.50;;
67941;SDS011;54731;42.600;23.476;2023-12-28T04:55:05;9.67;;;5.13;;
67941;SDS011;54731;42.600;23.476;2023-12-28T04:57:31;14.32;;;5.80;;
67941;SDS011;54731;42.600;23.476;2023-12-28T04:59:57;12.77;;;6.20;;
67941;SDS011;54731;42.600;23.476;2023-12-28T05:02:22;10.37;;;4.70;;
67941;SDS011;54731;42.600;23.476;2023-12-28T05:04:47;9.43;;;3.77;;
67941;SDS011;54731;42.600;23.476;2023-12-28T05:07:12;8.85;;;4.72;;
67941;SDS011;54731;42.600;23.476;2023-12-28T05:09:38;5.77;;;3.47;;
67941;SDS011;54731;42.600;23.476;2023-12-28T05:12:03;9.57;;;3.73;;
67941;SDS011;54731;42.600;23.476;2023-12-28T05:14:29;8.10;;;3.90;;
67941;SDS011;54731;42.600;23.476;2023-12-28T05:16:54;8.70;;;3.77;;
67941;SDS011;54731;42.600;23.476;2023-12-28T05:19:19;7.37;;;3.90;;
67941;SDS011;54731;42.600;23.476;2023-12-28T05:21:45;18.73;;;6.32;;
67941;SDS011;54731;42.600;23.476;2023-12-28T05:24:10;11.37;;;5.37;;
67941;SDS011;54731;42.600;23.476;2023-12-28T05:26:36;13.83;;;6.53;;
67941;SDS011;54731;42.600;23.476;2023-12-28T05:29:01;13.63;;;7.77;;
67941;SDS011;54731;42.600;23.476;2023-12-28T05:31:26;10.37;;;5.50;;
67941;SDS011;54731;42.600;23.476;2023-12-28T05:33:52;9.97;;;5.97;;
67941;SDS011;54731;42.600;23.476;2023-12-28T05:36:17;10.90;;;6.40;;
67941;SDS011;54731;42.600;23.476;2023-12-28T05:38:42;16.25;;;6.50;;
67941;SDS011;54731;42.600;23.476;2023-12-28T05:41:11;12.97;;;6.40;;
67941;SDS011;54731;42.600;23.476;2023-12-28T05:43:36;14.48;;;8.82;;
67941;SDS011;54731;42.600;23.476;2023-12-28T05:46:02;14.33;;;7.47;;
67941;SDS011;54731;42.600;23.476;2023-12-28T05:48:27;13.23;;;6.63;;
67941;SDS011;54731;42.600;23.476;2023-12-28T05:50:52;11.87;;;6.33;;
67941;SDS011;54731;42.600;23.476;2023-12-28T05:53:18;14.43;;;6.73;;
67941;SDS011;54731;42.600;23.476;2023-12-28T05:55:43;15.00;;;6.40;;
67941;SDS011;54731;42.600;23.476;2023-12-28T05:58:09;11.07;;;6.40;;
67941;SDS011;54731;42.600;23.476;2023-12-28T06:00:34;11.27;;;5.63;;
67941;SDS011;54731;42.600;23.476;2023-12-28T06:03:01;10.03;;;4.80;;
67941;SDS011;54731;42.600;23.476;2023-12-28T06:05:26;9.02;;;5.55;;
67941;SDS011;54731;42.600;23.476;2023-12-28T06:07:52;9.57;;;4.63;;
67941;SDS011;54731;42.600;23.476;2023-12-28T06:10:17;8.03;;;4.00;;
67941;SDS011;54731;42.600;23.476;2023-12-28T06:12:42;12.17;;;4.87;;
67941;SDS011;54731;42.600;23.476;2023-12-28T06:15:08;12.32;;;6.72;;
67941;SDS011;54731;42.600;23.476;2023-12-28T06:17:33;11.55;;;7.10;;
67941;SDS011;54731;42.600;23.476;2023-12-28T06:19:59;10.20;;;5.40;;
67941;SDS011;54731;42.600;23.476;2023-12-28T06:22:24;10.73;;;5.33;;
67941;SDS011;54731;42.600;23.476;2023-12-28T06:24:49;15.80;;;7.77;;
67941;SDS011;54731;42.600;23.476;2023-12-28T06:27:14;17.57;;;9.17;;
67941;SDS011;54731;42.600;23.476;2023-12-28T06:29:40;15.57;;;6.55;;
67941;SDS011;54731;42.600;23.476;2023-12-28T06:32:05;14.40;;;9.33;;
67941;SDS011;54731;42.600;23.476;2023-12-28T06:34:31;19.13;;;9.30;;
67941;SDS011;54731;42.600;23.476;2023-12-28T06:36:56;15.10;;;8.30;;
67941;SDS011;54731;42.600;23.476;2023-12-28T06:39:21;14.97;;;7.80;;
67941;SDS011;54731;42.600;23.476;2023-12-28T06:41:47;16.30;;;8.90;;
67941;SDS011;54731;42.600;23.476;2023-12-28T06:44:13;15.45;;;6.95;;
67941;SDS011;54731;42.600;23.476;2023-12-28T06:46:38;14.37;;;6.83;;
67941;SDS011;54731;42.600;23.476;2023-12-28T06:49:03;17.97;;;6.03;;
67941;SDS011;54731;42.600;23.476;2023-12-28T06:51:28;13.13;;;5.83;;
67941;SDS011;54731;42.600;23.476;2023-12-28T06:53:54;11.27;;;5.37;;
67941;SDS011;54731;42.600;23.476;2023-12-28T06:56:19;13.38;;;6.35;;
67941;SDS011;54731;42.600;23.476;2023-12-28T06:58:44;11.20;;;5.87;;
67941;SDS011;54731;42.600;23.476;2023-12-28T07:01:10;12.57;;;7.13;;
67941;SDS011;54731;42.600;23.476;2023-12-28T07:03:35;15.10;;;8.17;;
67941;SDS011;54731;42.600;23.476;2023-12-28T07:06:00;28.20;;;13.57;;
67941;SDS011;54731;42.600;23.476;2023-12-28T07:08:26;32.75;;;18.00;;
67941;SDS011;54731;42.600;23.476;2023-12-28T07:10:52;44.27;;;22.47;;
67941;SDS011;54731;42.600;23.476;2023-12-28T07:13:17;45.20;;;24.07;;
67941;SDS011;54731;42.600;23.476;2023-12-28T07:15:42;58.97;;;32.37;;
67941;SDS011;54731;42.600;23.476;2023-12-28T07:18:08;64.72;;;33.97;;
67941;SDS011;54731;42.600;23.476;2023-12-28T07:20:33;48.33;;;27.35;;
67941;SDS011;54731;42.600;23.476;2023-12-28T07:22:58;29.50;;;16.57;;
67941;SDS011;54731;42.600;23.476;2023-12-28T07:25:24;26.57;;;15.07;;
67941;SDS011;54731;42.600;23.476;2023-12-28T07:27:49;24.37;;;13.97;;
67941;SDS011;54731;42.600;23.476;2023-12-28T07:30:14;22.30;;;13.53;;
67941;SDS011;54731;42.600;23.476;2023-12-28T07:32:40;18.07;;;11.73;;
67941;SDS011;54731;42.600;23.476;2023-12-28T07:35:05;17.67;;;11.43;;
67941;SDS011;54731;42.600;23.476;2023-12-28T07:37:31;20.58;;;11.93;;
67941;SDS011;54731;42.600;23.476;2023-12-28T07:39:56;22.13;;;12.70;;
67941;SDS011;54731;42.600;23.476;2023-12-28T07:42:21;20.50;;;11.13;;
67941;SDS011;54731;42.600;23.476;2023-12-28T07:44:46;26.23;;;12.23;;
67941;SDS011;54731;42.600;23.476;2023-12-28T07:47:12;18.42;;;8.55;;
67941;SDS011;54731;42.600;23.476;2023-12-28T07:49:37;14.53;;;8.30;;
67941;SDS011;54731;42.600;23.476;2023-12-28T07:52:03;16.60;;;8.00;;
67941;SDS011;54731;42.600;23.476;2023-12-28T07:54:28;15.53;;;7.97;;
67941;SDS011;54731;42.600;23.476;2023-12-28T07:56:54;16.57;;;8.67;;
67941;SDS011;54731;42.600;23.476;2023-12-28T07:59:19;13.97;;;7.07;;
67941;SDS011;54731;42.600;23.476;2023-12-28T08:01:44;10.67;;;7.10;;
67941;SDS011;54731;42.600;23.476;2023-12-28T08:04:10;14.18;;;8.32;;
67941;SDS011;54731;42.600;23.476;2023-12-28T08:06:35;14.73;;;8.63;;
67941;SDS011;54731;42.600;23.476;2023-12-28T08:09:00;17.33;;;8.77;;
67941;SDS011;54731;42.600;23.476;2023-12-28T08:11:28;13.10;;;7.40;;
67941;SDS011;54731;42.600;23.476;2023-12-28T08:13:54;12.18;;;5.85;;
67941;SDS011;54731;42.600;23.476;2023-12-28T08:16:19;11.90;;;6.50;;
67941;SDS011;54731;42.600;23.476;2023-12-28T08:18:45;13.30;;;6.00;;
67941;SDS011;54731;42.600;23.476;2023-12-28T08:21:10;10.18;;;6.70;;
67941;SDS011;54731;42.600;23.476;2023-12-28T08:23:36;12.17;;;7.17;;
67941;SDS011;54731;42.600;23.476;2023-12-28T08:26:01;14.80;;;6.77;;
67941;SDS011;54731;42.600;23.476;2023-12-28T08:28:26;15.10;;;6.63;;
67941;SDS011;54731;42.600;23.476;2023-12-28T08:30:52;13.13;;;6.03;;
67941;SDS011;54731;42.600;23.476;2023-12-28T08:33:17;11.53;;;6.10;;
67941;SDS011;54731;42.600;23.476;2023-12-28T08:35:42;9.07;;;5.67;;
67941;SDS011;54731;42.600;23.476;2023-12-28T08:38:08;12.33;;;6.63;;
67941;SDS011;54731;42.600;23.476;2023-12-28T08:40:33;16.02;;;7.65;;
67941;SDS011;54731;42.600;23.476;2023-12-28T08:42:58;18.63;;;8.07;;
67941;SDS011;54731;42.600;23.476;2023-12-28T08:45:23;19.87;;;9.60;;
67941;SDS011;54731;42.600;23.476;2023-12-28T08:47:49;20.67;;;10.43;;
67941;SDS011;54731;42.600;23.476;2023-12-28T08:50:14;14.90;;;7.60;;
67941;SDS011;54731;42.600;23.476;2023-12-28T08:52:40;16.93;;;10.03;;
67941;SDS011;54731;42.600;23.476;2023-12-28T08:55:05;19.43;;;11.60;;
67941;SDS011;54731;42.600;23.476;2023-12-28T08:57:30;13.80;;;7.75;;
67941;SDS011;54731;42.600;23.476;2023-12-28T08:59:56;13.33;;;7.03;;
67941;SDS011;54731;42.600;23.476;2023-12-28T09:02:21;14.43;;;8.07;;
67941;SDS011;54731;42.600;23.476;2023-12-28T09:04:46;12.47;;;8.07;;
67941;SDS011;54731;42.600;23.476;2023-12-28T09:07:12;17.57;;;9.97;;
67941;SDS011;54731;42.600;23.476;2023-12-28T09:09:37;20.70;;;11.07;;
67941;SDS011;54731;42.600;23.476;2023-12-28T09:12:02;40.97;;;20.03;;
67941;SDS011;54731;42.600;23.476;2023-12-28T09:14:28;37.40;;;20.65;;
67941;SDS011;54731;42.600;23.476;2023-12-28T09:16:53;33.87;;;20.87;;
67941;SDS011;54731;42.600;23.476;2023-12-28T09:19:18;42.63;;;20.87;;
67941;SDS011;54731;42.600;23.476;2023-12-28T09:21:44;48.37;;;22.03;;
67941;SDS011;54731;42.600;23.476;2023-12-28T09:24:09;46.03;;;21.80;;
67941;SDS011;54731;42.600;23.476;2023-12-28T09:26:34;43.77;;;22.33;;
67941;SDS011;54731;42.600;23.476;2023-12-28T09:28:59;37.00;;;19.07;;
67941;SDS011;54731;42.600;23.476;2023-12-28T09:31:25;37.80;;;21.00;;
67941;SDS011;54731;42.600;23.476;2023-12-28T09:33:50;41.30;;;21.03;;
67941;SDS011;54731;42.600;23.476;2023-12-28T09:36:15;45.03;;;23.27;;
67941;SDS011;54731;42.600;23.476;2023-12-28T09:38:40;49.45;;;25.67;;
67941;SDS011;54731;42.600;23.476;2023-12-28T09:41:09;57.97;;;28.57;;
67941;SDS011;54731;42.600;23.476;2023-12-28T09:43:38;54.93;;;29.03;;
67941;SDS011;54731;42.600;23.476;2023-12-28T09:46:29;63.60;;;29.08;;
67941;SDS011;54731;42.600;23.476;2023-12-28T09:48:54;64.00;;;33.27;;
67941;SDS011;54731;42.600;23.476;2023-12-28T09:51:20;69.35;;;34.58;;
67941;SDS011;54731;42.600;23.476;2023-12-28T09:53:45;80.43;;;36.50;;
67941;SDS011;54731;42.600;23.476;2023-12-28T09:56:12;68.67;;;34.50;;
67941;SDS011;54731;42.600;23.476;2023-12-28T09:58:38;47.80;;;25.05;;
67941;SDS011;54731;42.600;23.476;2023-12-28T10:01:04;45.05;;;23.80;;
67941;SDS011;54731;42.600;23.476;2023-12-28T10:03:30;41.50;;;22.73;;
67941;SDS011;54731;42.600;23.476;2023-12-28T10:05:55;81.80;;;32.10;;
67941;SDS011;54731;42.600;23.476;2023-12-28T10:08:21;46.08;;;24.05;;
67941;SDS011;54731;42.600;23.476;2023-12-28T10:10:46;45.60;;;24.93;;
67941;SDS011;54731;42.600;23.476;2023-12-28T10:13:11;39.87;;;22.93;;
67941;SDS011;54731;42.600;23.476;2023-12-28T10:15:37;45.40;;;24.80;;
67941;SDS011;54731;42.600;23.476;2023-12-28T10:18:03;48.57;;;24.37;;
67941;SDS011;54731;42.600;23.476;2023-12-28T10:20:31;51.15;;;27.08;;
67941;SDS011;54731;42.600;23.476;2023-12-28T10:23:00;59.25;;;31.58;;
67941;SDS011;54731;42.600;23.476;2023-12-28T10:25:26;71.27;;;34.00;;
67941;SDS011;54731;42.600;23.476;2023-12-28T10:27:52;72.05;;;35.22;;
67941;SDS011;54731;42.600;23.476;2023-12-28T10:30:19;70.55;;;33.72;;
67941;SDS011;54731;42.600;23.476;2023-12-28T10:32:45;66.95;;;33.25;;
67941;SDS011;54731;42.600;23.476;2023-12-28T10:35:11;64.37;;;32.57;;
67941;SDS011;54731;42.600;23.476;2023-12-28T10:37:37;60.25;;;32.92;;
67941;SDS011;54731;42.600;23.476;2023-12-28T10:40:05;63.63;;;31.73;;
67941;SDS011;54731;42.600;23.476;2023-12-28T10:42:32;53.30;;;28.13;;
67941;SDS011;54731;42.600;23.476;2023-12-28T10:45:04;39.55;;;22.52;;
67941;SDS011;54731;42.600;23.476;2023-12-28T10:47:31;38.05;;;21.48;;
67941;SDS011;54731;42.600;23.476;2023-12-28T10:49:57;44.35;;;24.45;;
67941;SDS011;54731;42.600;23.476;2023-12-28T10:52:29;41.30;;;23.33;;
67941;SDS011;54731;42.600;23.476;2023-12-28T11:00:58;37.20;;;21.40;;
67941;SDS011;54731;42.600;23.476;2023-12-28T11:03:30;38.33;;;21.53;;
67941;SDS011;54731;42.600;23.476;2023-12-28T11:06:01;38.17;;;21.27;;
67941;SDS011;54731;42.600;23.476;2023-12-28T11:08:29;44.28;;;22.45;;
67941;SDS011;54731;42.600;23.476;2023-12-28T11:10:57;47.35;;;27.92;;
67941;SDS011;54731;42.600;23.476;2023-12-28T11:13:24;56.53;;;27.83;;
67941;SDS011;54731;42.600;23.476;2023-12-28T11:15:49;42.70;;;24.10;;
67941;SDS011;54731;42.600;23.476;2023-12-28T11:18:15;40.67;;;23.23;;
67941;SDS011;54731;42.600;23.476;2023-12-28T11:20:41;47.63;;;26.77;;
67941;SDS011;54731;42.600;23.476;2023-12-28T11:23:08;50.90;;;27.80;;
67941;SDS011;54731;42.600;23.476;2023-12-28T11:25:35;60.33;;;33.08;;
67941;SDS011;54731;42.600;23.476;2023-12-28T11:28:00;61.07;;;30.23;;
67941;SDS011;54731;42.600;23.476;2023-12-28T11:30:34;56.75;;;28.50;;
67941;SDS011;54731;42.600;23.476;2023-12-28T11:32:59;52.50;;;26.93;;
67941;SDS011;54731;42.600;23.476;2023-12-28T11:35:31;49.83;;;27.23;;
67941;SDS011;54731;42.600;23.476;2023-12-28T11:37:59;42.85;;;23.52;;
67941;SDS011;54731;42.600;23.476;2023-12-28T11:40:26;30.70;;;17.33;;
67941;SDS011;54731;42.600;23.476;2023-12-28T11:42:54;31.10;;;17.57;;
67941;SDS011;54731;42.600;23.476;2023-12-28T11:45:21;30.38;;;17.60;;
67941;SDS011;54731;42.600;23.476;2023-12-28T11:47:58;34.05;;;17.92;;
67941;SDS011;54731;42.600;23.476;2023-12-28T11:50:32;26.52;;;15.70;;
67941;SDS011;54731;42.600;23.476;2023-12-28T11:52:57;27.63;;;16.27;;
67941;SDS011;54731;42.600;23.476;2023-12-28T11:55:23;33.77;;;19.30;;
67941;SDS011;54731;42.600;23.476;2023-12-28T11:57:48;51.33;;;25.63;;
67941;SDS011;54731;42.600;23.476;2023-12-28T12:00:13;49.00;;;27.30;;
67941;SDS011;54731;42.600;23.476;2023-12-28T12:02:42;41.23;;;21.60;;
67941;SDS011;54731;42.600;23.476;2023-12-28T12:05:08;71.65;;;34.83;;
67941;SDS011;54731;42.600;23.476;2023-12-28T12:07:34;49.60;;;26.00;;
67941;SDS011;54731;42.600;23.476;2023-12-28T12:10:00;183.02;;;70.72;;
67941;SDS011;54731;42.600;23.476;2023-12-28T12:12:26;54.37;;;26.70;;
67941;SDS011;54731;42.600;23.476;2023-12-28T12:14:51;39.97;;;23.02;;
67941;SDS011;54731;42.600;23.476;2023-12-28T12:17:17;44.00;;;23.97;;
67941;SDS011;54731;42.600;23.476;2023-12-28T12:19:43;39.03;;;22.93;;
67941;SDS011;54731;42.600;23.476;2023-12-28T12:22:08;40.88;;;24.85;;
67941;SDS011;54731;42.600;23.476;2023-12-28T12:24:33;45.63;;;24.53;;
67941;SDS011;54731;42.600;23.476;2023-12-28T12:27:00;41.00;;;24.92;;
67941;SDS011;54731;42.600;23.476;2023-12-28T12:29:26;39.27;;;24.23;;
67941;SDS011;54731;42.600;23.476;2023-12-28T12:31:51;47.03;;;25.53;;
67941;SDS011;54731;42.600;23.476;2023-12-28T12:34:17;37.53;;;22.37;;
67941;SDS011;54731;42.600;23.476;2023-12-28T12:36:42;60.70;;;37.40;;
67941;SDS011;54731;42.600;23.476;2023-12-28T12:39:11;53.07;;;29.93;;
67941;SDS011;54731;42.600;23.476;2023-12-28T12:41:37;40.22;;;23.92;;
67941;SDS011;54731;42.600;23.476;2023-12-28T12:44:02;31.48;;;19.17;;
67941;SDS011;54731;42.600;23.476;2023-12-28T12:46:29;38.20;;;22.17;;
67941;SDS011;54731;42.600;23.476;2023-12-28T12:48:55;35.08;;;19.42;;
67941;SDS011;54731;42.600;23.476;2023-12-28T12:51:25;30.95;;;17.90;;
67941;SDS011;54731;42.600;23.476;2023-12-28T12:53:56;52.03;;;30.17;;
67941;SDS011;54731;42.600;23.476;2023-12-28T12:56:22;109.27;;;71.20;;
67941;SDS011;54731;42.600;23.476;2023-12-28T12:58:47;52.13;;;36.47;;
67941;SDS011;54731;42.600;23.476;2023-12-28T13:01:12;51.80;;;37.33;;
67941;SDS011;54731;42.600;23.476;2023-12-28T13:03:37;33.07;;;25.90;;
67941;SDS011;54731;42.600;23.476;2023-12-28T13:06:03;31.47;;;20.33;;
67941;SDS011;54731;42.600;23.476;2023-12-28T13:08:29;32.83;;;22.02;;
67941;SDS011;54731;42.600;23.476;2023-12-28T13:10:54;28.00;;;17.35;;
67941;SDS011;54731;42.600;23.476;2023-12-28T13:13:19;27.60;;;17.07;;
67941;SDS011;54731;42.600;23.476;2023-12-28T13:15:44;27.03;;;19.27;;
67941;SDS011;54731;42.600;23.476;2023-12-28T13:18:10;14.50;;;10.63;;
67941;SDS011;54731;42.600;23.476;2023-12-28T13:20:35;23.47;;;14.13;;
67941;SDS011;54731;42.600;23.476;2023-12-28T13:23:00;26.83;;;16.87;;
67941;SDS011;54731;42.600;23.476;2023-12-28T13:25:26;25.03;;;16.00;;
67941;SDS011;54731;42.600;23.476;2023-12-28T13:27:51;21.40;;;13.63;;
67941;SDS011;54731;42.600;23.476;2023-12-28T13:30:16;20.07;;;11.77;;
67941;SDS011;54731;42.600;23.476;2023-12-28T13:32:41;14.03;;;7.87;;
67941;SDS011;54731;42.600;23.476;2023-12-28T13:35:07;14.63;;;9.30;;
67941;SDS011;54731;42.600;23.476;2023-12-28T13:37:32;9.60;;;4.97;;
67941;SDS011;54731;42.600;23.476;2023-12-28T13:39:57;11.33;;;6.63;;
67941;SDS011;54731;42.600;23.476;2023-12-28T13:42:23;13.00;;;7.50;;
67941;SDS011;54731;42.600;23.476;2023-12-28T13:44:48;34.37;;;21.00;;
67941;SDS011;54731;42.600;23.476;2023-12-28T13:47:13;36.03;;;23.50;;
67941;SDS011;54731;42.600;23.476;2023-12-28T13:49:39;23.77;;;15.27;;
67941;SDS011;54731;42.600;23.476;2023-12-28T13:52:04;20.03;;;12.20;;
67941;SDS011;54731;42.600;23.476;2023-12-28T13:54:30;18.42;;;12.20;;
67941;SDS011;54731;42.600;23.476;2023-12-28T13:56:55;20.33;;;13.27;;
67941;SDS011;54731;42.600;23.476;2023-12-28T13:59:20;16.03;;;10.03;;
67941;SDS011;54731;42.600;23.476;2023-12-28T14:01:45;11.17;;;6.80;;
67941;SDS011;54731;42.600;23.476;2023-12-28T14:04:11;10.77;;;6.47;;
67941;SDS011;54731;42.600;23.476;2023-12-28T14:06:36;9.57;;;5.63;;
67941;SDS011;54731;42.600;23.476;2023-12-28T14:09:01;10.57;;;7.13;;
67941;SDS011;54731;42.600;23.476;2023-12-28T14:11:26;14.00;;;8.47;;
67941;SDS011;54731;42.600;23.476;2023-12-28T14:13:52;12.60;;;6.10;;
67941;SDS011;54731;42.600;23.476;2023-12-28T14:16:17;8.98;;;4.22;;